Time;durP1;ratioP1;P1;durP2;ratioP2;P2;SDS_P1;SDS_P2;PMS_P1;PMS_P2;Temp;Humidity;BMP_temperature;BMP_pressure;BME280_temperature;BME280_humidity;BME280_pressure;Samples;Min_cycle;Max_cycle;Signal;HPM_P1;HPM_P2
2021/09/26 00:02:21;;;;;;;;;;;;;;;11.91;87.60;100373.97;4996444;28;1225;-60
2021/09/26 00:04:48;;;;;;;;;;;;;;;11.93;87.67;100370.81;5013628;28;870;-60
2021/09/26 00:07:15;;;;;;;;;;;;;;;11.99;87.92;100366.41;5013654;28;861;-60
2021/09/26 00:09:42;;;;;;;;;;;;;;;12.09;87.79;100365.59;5012942;28;847;-60
2021/09/26 00:12:09;;;;;;;;;;;;;;;12.13;87.95;100362.84;5013612;28;814;-60
2021/09/26 00:14:36;;;;;;;;;;;;;;;12.11;87.87;100357.69;5013603;28;858;-60
2021/09/26 00:17:03;;;;;;;;;;;;;;;12.10;87.87;100363.63;5013448;28;1150;-60
2021/09/26 00:19:31;;;;;;;;;;;;;;;12.12;87.97;100364.00;5013332;28;1914;-60
2021/09/26 00:21:57;;;;;;;;;;;;;;;12.11;88.27;100365.22;4995803;28;1302;-60
2021/09/26 00:24:25;;;;;;;;;;;;;;;12.06;87.69;100355.34;5013281;28;870;-59
2021/09/26 00:26:51;;;;;;;;;;;;;;;12.01;88.01;100359.31;5013152;28;866;-60
2021/09/26 00:29:18;;;;;;;;;;;;;;;12.05;88.65;100359.28;5013166;28;827;-60
2021/09/26 00:31:45;;;;;;;;;;;;;;;12.07;88.35;100356.13;5013139;28;858;-60
2021/09/26 00:34:12;;;;;;;;;;;;;;;12.03;87.80;100364.44;5013176;28;827;-60
2021/09/26 00:36:39;;;;;;;;;;;;;;;12.03;88.10;100354.16;5013047;28;863;-60
2021/09/26 00:39:05;;;;;;;;;;;;;;;12.04;88.30;100357.72;5012976;28;1906;-60
2021/09/26 00:41:32;;;;;;;;;;;;;;;12.03;88.29;100368.00;5012960;28;807;-60
2021/09/26 00:43:59;;;;;;;;;;;;;;;12.03;88.42;100365.25;5013126;28;893;-60
2021/09/26 00:46:26;;;;;;;;;;;;;;;12.02;88.42;100360.88;5012901;28;874;-60
2021/09/26 00:48:53;;;;;;;;;;;;;;;12.03;88.40;100362.47;4995305;28;1193;-60
2021/09/26 00:51:20;;;;;;;;;;;;;;;12.03;88.93;100359.69;5012766;28;843;-60
2021/09/26 00:53:47;;;;;;;;;;;;;;;12.02;88.57;100363.66;5012762;28;819;-60
2021/09/26 00:56:14;;;;;;;;;;;;;;;11.99;88.60;100367.22;5012657;28;819;-60
2021/09/26 00:58:45;;;;;;;;;;;;;;;11.97;88.89;100361.28;5012573;28;1965;-60
2021/09/26 01:01:12;;;;;;;;;;;;;;;11.96;88.85;100361.69;4995090;28;1386;-60
2021/09/26 01:03:39;;;;;;;;;;;;;;;11.95;88.84;100358.13;5012561;28;862;-60
2021/09/26 01:06:33;;;;;;;;;;;;;;;11.94;88.91;100362.06;5012592;28;799;-60
2021/09/26 01:09:05;;;;;;;;;;;;;;;11.92;89.00;100355.34;4976125;28;1193;-60
2021/09/26 01:11:39;;;;;;;;;;;;;;;11.92;88.87;100361.69;5012600;28;803;-60
2021/09/26 01:14:19;;;;;;;;;;;;;;;11.91;88.87;100360.13;5012420;28;796;-60
2021/09/26 01:17:01;;;;;;;;;;;;;;;11.93;88.92;100357.75;5012512;28;937;-60
2021/09/26 01:19:30;;;;;;;;;;;;;;;11.91;89.10;100362.09;4993266;28;1906;-60
2021/09/26 01:22:06;;;;;;;;;;;;;;;11.93;88.84;100360.50;4992113;28;819;-60
2021/09/26 01:24:52;;;;;;;;;;;;;;;11.93;88.93;100360.50;4992636;28;835;-60
2021/09/26 01:27:28;;;;;;;;;;;;;;;11.89;88.84;100356.94;4992477;28;866;-60
2021/09/26 01:29:54;;;;;;;;;;;;;;;11.85;89.21;100358.91;4992552;28;871;-60
2021/09/26 01:32:22;;;;;;;;;;;;;;;11.86;89.31;100363.25;4992542;28;843;-60
2021/09/26 01:34:51;;;;;;;;;;;;;;;11.87;89.05;100356.53;4992546;28;902;-59
2021/09/26 01:37:20;;;;;;;;;;;;;;;11.83;89.15;100358.50;4992424;28;807;-60
2021/09/26 01:40:10;;;;;;;;;;;;;;;11.84;89.62;100358.13;4992589;28;1949;-60
2021/09/26 01:42:55;;;;;;;;;;;;;;;11.82;89.27;100363.25;4982379;28;1034;-60
2021/09/26 01:45:32;;;;;;;;;;;;;;;11.79;89.38;100354.94;4993064;28;863;-60
2021/09/26 01:48:02;;;;;;;;;;;;;;;11.74;89.18;100353.38;4992340;28;839;-60
2021/09/26 01:50:30;;;;;;;;;;;;;;;11.73;89.44;100351.00;4992318;28;902;-60
2021/09/26 01:52:58;;;;;;;;;;;;;;;11.71;89.44;100356.91;4974857;28;1208;-60
2021/09/26 01:55:27;;;;;;;;;;;;;;;11.71;89.54;100356.13;4992188;28;839;-60
2021/09/26 01:57:57;;;;;;;;;;;;;;;11.70;89.44;100362.88;4992222;28;816;-60
2021/09/26 02:00:24;;;;;;;;;;;;;;;11.69;89.25;100364.03;4992118;28;1973;-60
2021/09/26 02:02:51;;;;;;;;;;;;;;;11.68;89.29;100359.72;4992141;28;869;-60
2021/09/26 02:05:19;;;;;;;;;;;;;;;11.62;89.59;100362.88;4992373;28;823;-60
2021/09/26 02:07:50;;;;;;;;;;;;;;;11.56;89.43;100358.91;4992233;28;885;-60
2021/09/26 02:10:21;;;;;;;;;;;;;;;11.53;89.53;100362.47;4974723;28;1324;-60
2021/09/26 02:12:48;;;;;;;;;;;;;;;11.50;89.56;100359.69;4974688;28;1291;-60
2021/09/26 02:15:17;;;;;;;;;;;;;;;11.47;89.53;100366.81;4992197;28;807;-60
2021/09/26 02:17:44;;;;;;;;;;;;;;;11.47;89.85;100361.28;4998649;28;1160;-60
2021/09/26 02:20:13;;;;;;;;;;;;;;;11.47;89.94;100366.81;5011600;28;1910;-59
2021/09/26 02:22:40;;;;;;;;;;;;;;;11.45;89.95;100371.97;5011863;28;871;-60
2021/09/26 02:25:08;;;;;;;;;;;;;;;11.45;89.64;100371.97;5011477;28;819;-60
2021/09/26 02:27:35;;;;;;;;;;;;;;;11.45;89.98;100371.97;5011535;28;890;-60
2021/09/26 02:30:04;;;;;;;;;;;;;;;11.42;89.83;100372.75;5011584;28;869;-60
2021/09/26 02:32:31;;;;;;;;;;;;;;;11.38;89.61;100381.06;5013273;28;819;-60
2021/09/26 02:34:58;;;;;;;;;;;;;;;11.37;89.79;100375.91;5015394;28;811;-60
2021/09/26 02:37:25;;;;;;;;;;;;;;;11.37;90.08;100373.13;5015314;28;796;-60
2021/09/26 02:39:52;;;;;;;;;;;;;;;11.33;89.82;100370.38;5015256;28;1949;-60
2021/09/26 02:42:35;;;;;;;;;;;;;;;11.26;89.86;100372.34;5015214;28;803;-60
2021/09/26 02:45:09;;;;;;;;;;;;;;;11.13;89.29;100383.00;5015190;28;800;-60
2021/09/26 02:47:39;;;;;;;;;;;;;;;11.00;89.28;100379.81;5015130;28;834;-60
2021/09/26 02:50:06;;;;;;;;;;;;;;;10.92;89.31;100375.44;5015321;28;807;-60
2021/09/26 02:52:33;;;;;;;;;;;;;;;10.93;89.72;100388.09;5015045;28;803;-60
2021/09/26 02:55:00;;;;;;;;;;;;;;;10.95;90.31;100377.44;5014908;28;854;-60
2021/09/26 02:57:27;;;;;;;;;;;;;;;11.02;90.07;100377.44;5014950;28;807;-60
2021/09/26 02:59:54;;;;;;;;;;;;;;;11.09;90.09;100376.66;5014797;28;1894;-60
2021/09/26 03:02:26;;;;;;;;;;;;;;;11.15;90.25;100378.63;5015006;28;783;-60
2021/09/26 03:04:53;;;;;;;;;;;;;;;11.11;89.83;100377.84;5014830;28;804;-60
2021/09/26 03:07:19;;;;;;;;;;;;;;;11.10;89.96;100378.25;5014811;28;811;-60
2021/09/26 03:09:47;;;;;;;;;;;;;;;11.02;89.68;100371.91;5014714;28;819;-60
2021/09/26 03:12:15;;;;;;;;;;;;;;;10.94;89.69;100370.28;5014646;28;858;-60
2021/09/26 03:14:41;;;;;;;;;;;;;;;10.88;90.00;100374.63;5014871;28;815;-60
2021/09/26 03:17:08;;;;;;;;;;;;;;;10.81;89.82;100373.41;5014560;28;1346;-60
2021/09/26 03:19:35;;;;;;;;;;;;;;;10.83;90.72;100375.78;5014539;28;1910;-59
2021/09/26 03:22:02;;;;;;;;;;;;;;;10.82;90.57;100380.53;5014537;28;808;-60
2021/09/26 03:24:30;;;;;;;;;;;;;;;10.82;90.31;100375.00;4996695;28;1181;-60
2021/09/26 03:26:57;;;;;;;;;;;;;;;10.78;89.93;100379.72;5014446;28;827;-60
2021/09/26 03:29:24;;;;;;;;;;;;;;;10.75;89.75;100376.94;5014519;28;1012;-60
2021/09/26 03:31:49;;;;;;;;;;;;;;;10.70;90.07;100372.59;5014407;28;819;-60
2021/09/26 03:34:16;;;;;;;;;;;;;;;10.67;90.12;100372.56;5014270;28;827;-60
2021/09/26 03:36:44;;;;;;;;;;;;;;;10.69;90.40;100379.31;5014303;28;835;-60
2021/09/26 03:39:10;;;;;;;;;;;;;;;10.70;90.70;100374.56;4996453;28;1886;-60
2021/09/26 03:41:37;;;;;;;;;;;;;;;10.70;90.20;100378.13;5014438;28;831;-60
2021/09/26 03:44:04;;;;;;;;;;;;;;;10.68;90.18;100372.19;5013022;28;823;-60
2021/09/26 03:46:30;;;;;;;;;;;;;;;10.67;90.48;100378.91;4996568;28;1386;-59
2021/09/26 03:48:57;;;;;;;;;;;;;;;10.69;90.27;100372.97;5014146;28;819;-59
2021/09/26 03:51:24;;;;;;;;;;;;;;;10.64;90.00;100374.16;5014202;28;855;-60
2021/09/26 03:53:52;;;;;;;;;;;;;;;10.57;90.45;100374.13;5013916;28;822;-60
2021/09/26 03:56:19;;;;;;;;;;;;;;;10.48;89.81;100374.47;5013899;28;819;-60
2021/09/26 03:58:46;;;;;;;;;;;;;;;10.38;90.21;100366.94;5013725;28;1945;-60
2021/09/26 04:01:13;;;;;;;;;;;;;;;10.35;90.50;100373.25;5013761;28;795;-60
2021/09/26 04:03:39;;;;;;;;;;;;;;;10.33;90.58;100376.38;5013841;28;807;-60
2021/09/26 04:06:09;;;;;;;;;;;;;;;10.34;90.76;100380.72;5013745;28;898;-60
2021/09/26 04:08:38;;;;;;;;;;;;;;;10.37;90.56;100382.72;5013645;28;820;-60
2021/09/26 04:11:06;;;;;;;;;;;;;;;10.54;91.23;100383.19;5013858;28;894;-59
2021/09/26 04:13:33;;;;;;;;;;;;;;;10.62;90.80;100382.03;5013538;28;811;-60
2021/09/26 04:15:59;;;;;;;;;;;;;;;10.66;91.30;100380.06;4995882;28;1205;-60
2021/09/26 04:18:27;;;;;;;;;;;;;;;10.70;91.39;100383.66;5013278;28;1906;-60
2021/09/26 04:20:54;;;;;;;;;;;;;;;10.79;91.28;100386.84;4995808;28;1260;-60
2021/09/26 04:23:20;;;;;;;;;;;;;;;10.85;91.09;100380.94;5013294;28;831;-60
2021/09/26 04:25:47;;;;;;;;;;;;;;;10.89;91.46;100384.50;5013306;28;854;-60
2021/09/26 04:28:13;;;;;;;;;;;;;;;10.87;90.85;100393.19;5013265;28;803;-60
2021/09/26 04:30:40;;;;;;;;;;;;;;;10.91;91.03;100387.69;5013224;28;822;-60
2021/09/26 04:33:07;;;;;;;;;;;;;;;11.01;91.54;100390.47;4995601;28;1181;-60
2021/09/26 04:35:34;;;;;;;;;;;;;;;11.12;91.80;100387.75;5013346;28;826;-60
2021/09/26 04:38:01;;;;;;;;;;;;;;;11.13;91.41;100383.00;5013091;28;807;-60
2021/09/26 04:40:28;;;;;;;;;;;;;;;11.09;91.30;100382.97;4995427;28;1902;-60
2021/09/26 04:42:55;;;;;;;;;;;;;;;11.11;91.16;100388.13;5012984;28;909;-60
2021/09/26 04:45:21;;;;;;;;;;;;;;;11.19;91.97;100393.28;5012924;28;807;-60
2021/09/26 04:47:48;;;;;;;;;;;;;;;11.34;92.04;100394.09;5012944;28;854;-60
2021/09/26 04:50:15;;;;;;;;;;;;;;;11.46;91.99;100390.16;5012802;28;866;-60
2021/09/26 04:52:42;;;;;;;;;;;;;;;11.64;92.14;100390.16;5012725;28;815;-60
2021/09/26 04:55:09;;;;;;;;;;;;;;;11.87;91.83;100384.22;5012542;28;863;-60
2021/09/26 04:57:36;;;;;;;;;;;;;;;11.94;91.61;100389.78;5012811;28;816;-60
2021/09/26 05:00:05;;;;;;;;;;;;;;;12.00;91.23;100384.63;5012649;28;1953;-60
2021/09/26 05:02:32;;;;;;;;;;;;;;;12.13;91.30;100385.78;5012909;28;918;-60
2021/09/26 05:04:59;;;;;;;;;;;;;;;12.26;91.56;100386.94;5012577;28;847;-60
2021/09/26 05:07:26;;;;;;;;;;;;;;;12.40;91.43;100388.91;5012557;28;859;-60
2021/09/26 05:09:53;;;;;;;;;;;;;;;12.57;91.13;100394.78;5012576;28;937;-60
2021/09/26 05:17:34;;;;;;;;;;;;;;;13.20;91.08;100392.88;5402590;22;2016;-57
2021/09/26 05:20:02;;;;;;;;;;;;;;;13.50;91.31;100391.50;5032088;28;1910;-57
2021/09/26 05:22:29;;;;;;;;;;;;;;;13.94;91.33;100389.97;5032125;28;806;-57
2021/09/26 05:24:56;;;;;;;;;;;;;;;14.43;89.64;100390.66;5031998;28;905;-58
2021/09/26 05:27:23;;;;;;;;;;;;;;;14.94;88.17;100390.88;5031947;28;824;-57
2021/09/26 05:29:50;;;;;;;;;;;;;;;15.17;88.23;100390.16;5031953;28;822;-57
2021/09/26 05:32:18;;;;;;;;;;;;;;;15.23;87.78;100398.81;5031907;28;889;-57
2021/09/26 05:34:44;;;;;;;;;;;;;;;15.32;87.63;100401.88;5031874;28;814;-57
2021/09/26 05:37:12;;;;;;;;;;;;;;;15.33;86.58;100395.06;5031808;28;930;-57
2021/09/26 05:39:39;;;;;;;;;;;;;;;15.54;86.35;100391.19;5031976;28;1882;-57
2021/09/26 05:42:07;;;;;;;;;;;;;;;15.84;85.59;100393.09;5032465;28;775;-57
2021/09/26 05:44:35;;;;;;;;;;;;;;;15.95;84.37;100398.47;5032088;28;918;-57
2021/09/26 05:47:03;;;;;;;;;;;;;;;15.96;84.36;100400.06;5014180;28;897;-57
2021/09/26 05:49:30;;;;;;;;;;;;;;;16.03;83.78;100401.94;5031787;28;807;-57
2021/09/26 05:51:57;;;;;;;;;;;;;;;16.11;83.32;100404.19;5031720;28;838;-57
2021/09/26 05:54:24;;;;;;;;;;;;;;;16.27;82.88;100402.69;5031566;28;834;-58
2021/09/26 05:56:51;;;;;;;;;;;;;;;16.51;81.99;100401.44;5031721;28;933;-57
2021/09/26 05:59:18;;;;;;;;;;;;;;;16.83;79.87;100411.16;5031590;28;1893;-57
2021/09/26 06:01:45;;;;;;;;;;;;;;;17.32;79.74;100404.94;5031460;28;832;-58
2021/09/26 06:04:12;;;;;;;;;;;;;;;17.95;77.18;100406.63;5031604;28;807;-57
2021/09/26 06:06:39;;;;;;;;;;;;;;;18.59;74.36;100417.34;5033102;28;929;-57
2021/09/26 06:09:05;;;;;;;;;;;;;;;19.24;71.93;100410.63;5038136;28;822;-57
2021/09/26 06:11:32;;;;;;;;;;;;;;;20.06;69.16;100410.81;5038138;28;997;-57
2021/09/26 06:13:59;;;;;;;;;;;;;;;21.06;64.73;100414.84;5038414;28;846;-58
2021/09/26 06:16:27;;;;;;;;;;;;;;;21.80;62.17;100404.66;5038131;28;920;-58
2021/09/26 06:18:53;;;;;;;;;;;;;;;22.50;59.58;100406.13;5037812;28;1914;-57
2021/09/26 06:21:20;;;;;;;;;;;;;;;23.05;57.73;100402.47;5038164;28;811;-58
2021/09/26 06:23:46;;;;;;;;;;;;;;;23.06;56.50;100404.78;5020268;28;1607;-57
2021/09/26 06:26:14;;;;;;;;;;;;;;;22.54;57.27;100413.19;5020503;28;854;-58
2021/09/26 06:28:41;;;;;;;;;;;;;;;22.13;57.84;100409.72;5038043;28;929;-57
2021/09/26 06:31:07;;;;;;;;;;;;;;;22.13;57.89;100408.94;5038137;28;893;-57
2021/09/26 06:33:34;;;;;;;;;;;;;;;22.15;57.52;100404.41;5037966;28;871;-57
2021/09/26 06:36:00;;;;;;;;;;;;;;;22.52;56.86;100410.03;5038411;28;818;-58
2021/09/26 06:38:27;;;;;;;;;;;;;;;23.18;55.21;100403.81;5037993;28;1890;-58
2021/09/26 06:40:55;;;;;;;;;;;;;;;24.08;52.82;100412.78;5038724;28;795;-58
2021/09/26 06:43:22;;;;;;;;;;;;;;;24.74;51.26;100417.41;5037998;28;826;-58
2021/09/26 06:45:49;;;;;;;;;;;;;;;24.98;49.67;100414.47;5037951;28;877;-58
2021/09/26 06:48:15;;;;;;;;;;;;;;;25.09;49.00;100414.66;5038075;28;779;-57
2021/09/26 06:50:42;;;;;;;;;;;;;;;25.12;48.94;100416.53;5038209;28;763;-58
2021/09/26 06:53:09;;;;;;;;;;;;;;;25.39;47.99;100412.63;5038293;28;764;-58
2021/09/26 06:55:36;;;;;;;;;;;;;;;25.32;48.15;100407.34;5037648;28;1441;-58
2021/09/26 06:58:03;;;;;;;;;;;;;;;25.45;47.88;100413.50;5037758;28;870;-58
2021/09/26 07:00:30;;;;;;;;;;;;;;;25.62;46.75;100410.09;5037595;28;1890;-58
2021/09/26 07:02:57;;;;;;;;;;;;;;;25.66;46.62;100416.34;5038365;28;775;-58
2021/09/26 07:05:23;;;;;;;;;;;;;;;26.12;45.50;100407.19;5037844;28;859;-58
2021/09/26 07:07:50;;;;;;;;;;;;;;;26.08;45.23;100412.31;5037549;28;890;-58
2021/09/26 07:10:17;;;;;;;;;;;;;;;26.02;45.42;100409.38;5037545;28;914;-58
2021/09/26 07:12:46;;;;;;;;;;;;;;;26.29;44.43;100410.25;5037761;28;951;-58
2021/09/26 07:15:13;;;;;;;;;;;;;;;26.35;44.02;100411.09;5037768;28;787;-58
2021/09/26 07:17:39;;;;;;;;;;;;;;;26.35;43.89;100408.25;5037418;28;1198;-58
2021/09/26 07:20:07;;;;;;;;;;;;;;;26.52;43.35;100408.41;5034418;28;1914;-58
2021/09/26 07:22:34;;;;;;;;;;;;;;;26.65;42.53;100408.03;5034484;28;890;-58
2021/09/26 07:25:02;;;;;;;;;;;;;;;26.30;42.83;100403.28;5034895;28;810;-58
2021/09/26 07:27:29;;;;;;;;;;;;;;;26.13;42.69;100405.91;5034354;28;863;-58
2021/09/26 07:29:56;;;;;;;;;;;;;;;26.17;42.10;100414.97;5034279;28;882;-58
2021/09/26 07:32:23;;;;;;;;;;;;;;;26.10;42.11;100411.81;5016508;28;803;-58
2021/09/26 07:34:51;;;;;;;;;;;;;;;26.35;41.94;100402.59;5034177;28;862;-58
2021/09/26 07:37:18;;;;;;;;;;;;;;;26.30;41.83;100408.16;5034260;28;898;-59
2021/09/26 07:39:45;;;;;;;;;;;;;;;26.36;42.21;100409.03;5033970;28;1879;-58
2021/09/26 07:42:12;;;;;;;;;;;;;;;26.55;41.37;100403.81;5034050;28;842;-58
2021/09/26 07:44:39;;;;;;;;;;;;;;;26.71;41.07;100405.28;5033948;28;862;-58
2021/09/26 07:47:05;;;;;;;;;;;;;;;27.18;40.79;100406.72;5034094;28;869;-58
2021/09/26 07:49:34;;;;;;;;;;;;;;;27.33;40.38;100403.75;5034026;28;826;-58
2021/09/26 07:52:02;;;;;;;;;;;;;;;27.31;40.26;100405.56;5033849;28;802;-58
2021/09/26 07:54:31;;;;;;;;;;;;;;;27.31;40.21;100405.56;5033754;28;807;-58
2021/09/26 07:56:59;;;;;;;;;;;;;;;27.09;40.17;100406.91;5033600;28;878;-58
2021/09/26 07:59:26;;;;;;;;;;;;;;;27.02;41.31;100408.16;5033659;28;1889;-58
2021/09/26 08:01:53;;;;;;;;;;;;;;;27.24;40.13;100406.78;5033550;28;842;-58
2021/09/26 08:04:20;;;;;;;;;;;;;;;27.48;39.85;100400.75;5033867;28;818;-58
2021/09/26 08:06:47;;;;;;;;;;;;;;;27.42;39.69;100395.06;5033554;28;866;-58
2021/09/26 08:09:14;;;;;;;;;;;;;;;27.43;39.64;100393.75;5033444;28;886;-58
2021/09/26 08:11:41;;;;;;;;;;;;;;;27.52;39.39;100397.69;5033602;28;885;-58
2021/09/26 08:14:08;;;;;;;;;;;;;;;27.48;39.43;100390.19;5033315;28;870;-58
2021/09/26 08:16:35;;;;;;;;;;;;;;;27.30;39.28;100393.44;5033519;28;922;-58
2021/09/26 08:19:02;;;;;;;;;;;;;;;27.32;39.56;100385.19;5013524;28;1910;-58
2021/09/26 08:21:29;;;;;;;;;;;;;;;27.38;39.17;100386.00;5013456;28;857;-58
2021/09/26 08:23:56;;;;;;;;;;;;;;;27.48;38.81;100387.38;5013411;28;791;-58
2021/09/26 08:26:23;;;;;;;;;;;;;;;27.30;39.01;100384.91;5013447;28;870;-58
2021/09/26 08:28:49;;;;;;;;;;;;;;;26.90;39.50;100389.47;5013261;28;851;-58
2021/09/26 08:31:16;;;;;;;;;;;;;;;27.05;39.49;100378.00;4995255;28;1173;-58
2021/09/26 08:33:43;;;;;;;;;;;;;;;26.98;39.70;100376.41;5013205;28;919;-58
2021/09/26 08:36:10;;;;;;;;;;;;;;;27.27;39.56;100371.75;5013168;28;914;-58
2021/09/26 08:38:36;;;;;;;;;;;;;;;27.57;38.59;100382.75;5013225;28;1890;-58
2021/09/26 08:41:03;;;;;;;;;;;;;;;27.56;38.63;100373.47;5013075;28;835;-58
2021/09/26 08:43:30;;;;;;;;;;;;;;;27.77;38.18;100370.47;5013070;28;819;-58
2021/09/26 08:45:58;;;;;;;;;;;;;;;27.82;38.56;100376.16;5012919;28;910;-58
2021/09/26 08:48:27;;;;;;;;;;;;;;;27.70;37.67;100375.34;5012998;28;807;-58
2021/09/26 08:50:56;;;;;;;;;;;;;;;27.63;38.24;100380.72;5012935;28;854;-58
2021/09/26 08:53:26;;;;;;;;;;;;;;;27.76;38.52;100371.75;5012932;28;847;-58
2021/09/26 08:55:54;;;;;;;;;;;;;;;27.77;37.90;100367.63;5012751;28;969;-58
2021/09/26 08:58:21;;;;;;;;;;;;;;;27.53;38.75;100365.19;5012789;28;1946;-58
2021/09/26 09:00:49;;;;;;;;;;;;;;;27.59;38.61;100360.31;5012953;28;945;-58
2021/09/26 09:03:16;;;;;;;;;;;;;;;27.44;39.01;100358.44;4995352;28;950;-58
2021/09/26 09:05:49;;;;;;;;;;;;;;;27.53;39.06;100356.69;5012718;28;806;-58
2021/09/26 09:08:17;;;;;;;;;;;;;;;27.60;38.58;100356.97;5012933;28;909;-58
2021/09/26 09:10:45;;;;;;;;;;;;;;;27.54;38.74;100353.31;4995003;28;1153;-58
2021/09/26 09:13:14;;;;;;;;;;;;;;;27.61;39.05;100352.84;5012782;28;818;-58
2021/09/26 09:15:41;;;;;;;;;;;;;;;27.56;38.80;100344.28;5012439;28;1058;-58
2021/09/26 09:18:08;;;;;;;;;;;;;;;27.66;39.16;100348.47;5024742;28;1454;-58
2021/09/26 09:20:36;;;;;;;;;;;;;;;27.66;38.45;100351.31;5032238;28;1993;-57
2021/09/26 09:23:05;;;;;;;;;;;;;;;27.36;39.04;100343.16;5032110;28;973;-58
2021/09/26 09:25:35;;;;;;;;;;;;;;;27.27;38.97;100338.47;5032004;28;893;-58
2021/09/26 09:28:03;;;;;;;;;;;;;;;27.39;39.37;100335.69;5032092;28;858;-58
2021/09/26 09:30:34;;;;;;;;;;;;;;;27.64;38.22;100337.63;5032031;28;826;-58
2021/09/26 09:33:01;;;;;;;;;;;;;;;27.79;37.76;100334.59;5032068;28;834;-58
2021/09/26 09:35:30;;;;;;;;;;;;;;;28.12;37.24;100338.84;5031823;28;898;-58
2021/09/26 09:37:57;;;;;;;;;;;;;;;28.07;36.81;100336.78;5031792;28;815;-58
2021/09/26 09:40:24;;;;;;;;;;;;;;;27.98;36.84;100337.78;5031780;28;1964;-58
2021/09/26 09:42:53;;;;;;;;;;;;;;;27.94;36.49;100339.34;5030938;28;861;-58
2021/09/26 09:45:27;;;;;;;;;;;;;;;27.95;35.72;100340.88;5031763;28;894;-58
2021/09/26 09:48:00;;;;;;;;;;;;;;;27.85;35.91;100341.09;5031553;28;962;-58
2021/09/26 09:50:38;;;;;;;;;;;;;;;27.89;36.25;100338.03;5031713;28;819;-58
2021/09/26 09:53:06;;;;;;;;;;;;;;;28.12;35.80;100338.84;5031850;28;814;-58
2021/09/26 09:55:35;;;;;;;;;;;;;;;28.04;35.15;100334.97;5031521;28;1177;-58
2021/09/26 09:58:13;;;;;;;;;;;;;;;28.32;36.10;100337.13;5031676;28;885;-58
2021/09/26 10:01:06;;;;;;;;;;;;;;;28.64;35.52;100335.63;5031351;28;1894;-57
2021/09/26 10:03:35;;;;;;;;;;;;;;;28.75;34.76;100328.41;5027731;28;1722;-58
2021/09/26 10:06:24;;;;;;;;;;;;;;;28.50;35.60;100320.34;5031933;28;865;-58
2021/09/26 10:08:52;;;;;;;;;;;;;;;28.65;35.15;100325.78;5018645;28;1239;-58
2021/09/26 10:11:20;;;;;;;;;;;;;;;29.06;34.34;100325.28;5031374;28;873;-58
2021/09/26 10:13:47;;;;;;;;;;;;;;;29.09;33.73;100326.28;5031451;28;960;-58
2021/09/26 10:16:14;;;;;;;;;;;;;;;29.23;33.78;100328.13;5031464;28;1049;-58
2021/09/26 10:18:44;;;;;;;;;;;;;;;29.47;33.69;100309.69;5031167;28;1898;-58
2021/09/26 10:21:12;;;;;;;;;;;;;;;29.38;33.15;100309.94;5031389;28;830;-58
2021/09/26 10:23:41;;;;;;;;;;;;;;;29.22;33.30;100311.56;5031335;28;882;-58
2021/09/26 10:26:09;;;;;;;;;;;;;;;29.36;33.31;100307.63;5031301;28;873;-58
2021/09/26 10:28:37;;;;;;;;;;;;;;;29.37;33.42;100302.72;5031211;28;907;-58
2021/09/26 10:31:04;;;;;;;;;;;;;;;29.19;33.63;100301.19;5013526;28;1177;-58
2021/09/26 10:33:31;;;;;;;;;;;;;;;29.22;33.52;100286.69;5031240;28;957;-58
2021/09/26 10:36:00;;;;;;;;;;;;;;;29.46;33.25;100288.94;5031202;28;803;-58
2021/09/26 10:38:27;;;;;;;;;;;;;;;29.77;32.67;100280.59;5031145;28;1890;-58
2021/09/26 10:40:54;;;;;;;;;;;;;;;29.57;32.36;100284.50;5031081;28;921;-58
2021/09/26 10:43:24;;;;;;;;;;;;;;;29.65;32.32;100274.13;5013364;28;890;-58
2021/09/26 10:46:10;;;;;;;;;;;;;;;29.33;32.97;100270.91;5031052;28;962;-58
2021/09/26 10:48:56;;;;;;;;;;;;;;;29.50;32.47;100266.69;5030899;28;1703;-58
2021/09/26 10:51:41;;;;;;;;;;;;;;;29.75;31.54;100263.25;5031091;28;819;-58
2021/09/26 10:54:22;;;;;;;;;;;;;;;30.06;31.44;100262.78;5033875;28;805;-58
2021/09/26 10:56:51;;;;;;;;;;;;;;;30.42;31.08;100262.03;5034717;28;874;-58
2021/09/26 10:59:19;;;;;;;;;;;;;;;30.58;30.74;100261.13;5034735;28;1973;-58
2021/09/26 11:01:46;;;;;;;;;;;;;;;30.66;30.70;100255.59;5034667;28;826;-58
2021/09/26 11:04:13;;;;;;;;;;;;;;;30.77;29.94;100249.81;5034799;28;838;-58
2021/09/26 11:06:40;;;;;;;;;;;;;;;30.75;30.36;100241.00;5034531;28;890;-58
2021/09/26 11:09:10;;;;;;;;;;;;;;;30.80;29.64;100237.31;5034600;28;818;-58
2021/09/26 11:11:54;;;;;;;;;;;;;;;30.82;28.99;100233.94;5034442;28;807;-58
2021/09/26 11:14:21;;;;;;;;;;;;;;;30.95;29.52;100230.44;5034504;28;838;-58
2021/09/26 11:16:49;;;;;;;;;;;;;;;30.98;29.20;100227.28;5034346;28;1328;-58
2021/09/26 11:19:16;;;;;;;;;;;;;;;31.01;29.06;100220.53;5034423;28;1977;-58
2021/09/26 11:21:43;;;;;;;;;;;;;;;31.05;29.37;100223.09;5034405;28;810;-58
2021/09/26 11:24:11;;;;;;;;;;;;;;;31.27;28.97;100222.03;5016637;28;1354;-58
2021/09/26 11:26:58;;;;;;;;;;;;;;;31.39;28.61;100216.94;5034238;28;853;-58
2021/09/26 11:29:52;;;;;;;;;;;;;;;31.52;28.37;100217.06;5034276;28;873;-58
2021/09/26 11:32:24;;;;;;;;;;;;;;;31.68;28.40;100212.44;4997025;28;1285;-58
2021/09/26 11:34:52;;;;;;;;;;;;;;;31.78;28.00;100207.09;5034168;28;893;-58
2021/09/26 11:37:39;;;;;;;;;;;;;;;31.77;27.83;100199.84;5034122;28;878;-58
2021/09/26 11:40:07;;;;;;;;;;;;;;;31.41;28.03;100197.97;5033823;28;1898;-58
2021/09/26 11:42:35;;;;;;;;;;;;;;;31.09;28.59;100201.50;5033999;28;885;-58
2021/09/26 11:45:04;;;;;;;;;;;;;;;31.07;29.09;100194.78;5033870;28;839;-58
2021/09/26 11:47:31;;;;;;;;;;;;;;;31.13;28.18;100193.41;5034145;28;823;-58
2021/09/26 11:50:05;;;;;;;;;;;;;;;31.08;28.67;100191.38;5016375;28;1627;-58
2021/09/26 11:52:42;;;;;;;;;;;;;;;31.18;28.56;100182.44;5033787;28;874;-58
2021/09/26 11:55:10;;;;;;;;;;;;;;;31.30;28.15;100184.63;5016018;28;847;-58
2021/09/26 11:57:37;;;;;;;;;;;;;;;31.44;28.05;100188.34;5033683;28;854;-58
2021/09/26 12:00:07;;;;;;;;;;;;;;;31.73;27.89;100185.88;5015925;28;2691;-58
2021/09/26 12:02:34;;;;;;;;;;;;;;;32.02;27.59;100177.66;5033782;28;842;-58
2021/09/26 12:05:01;;;;;;;;;;;;;;;32.27;27.33;100173.34;5033215;28;748;-58
2021/09/26 12:07:31;;;;;;;;;;;;;;;32.60;26.69;100170.44;5016096;28;918;-58
2021/09/26 12:09:58;;;;;;;;;;;;;;;32.49;26.70;100162.81;5033237;28;863;-58
2021/09/26 12:12:25;;;;;;;;;;;;;;;32.21;27.22;100169.78;5033455;28;791;-58
2021/09/26 12:15:00;;;;;;;;;;;;;;;32.27;27.01;100166.84;5033408;28;838;-58
2021/09/26 12:17:28;;;;;;;;;;;;;;;32.26;27.55;100163.22;5033343;28;1281;-58
2021/09/26 12:20:02;;;;;;;;;;;;;;;32.48;27.19;100164.16;5033264;28;1921;-58
2021/09/26 12:22:29;;;;;;;;;;;;;;;32.58;26.62;100161.63;5033212;28;823;-58
2021/09/26 12:25:01;;;;;;;;;;;;;;;32.77;26.26;100158.69;5033106;28;972;-58
2021/09/26 12:27:31;;;;;;;;;;;;;;;32.91;26.23;100154.50;5033191;28;812;-58
2021/09/26 12:30:03;;;;;;;;;;;;;;;33.00;26.19;100151.19;5015354;28;1517;-58
2021/09/26 12:32:32;;;;;;;;;;;;;;;32.85;26.43;100153.84;5033051;28;894;-58
2021/09/26 12:35:00;;;;;;;;;;;;;;;32.85;26.53;100148.09;5033022;28;1099;-58
2021/09/26 12:37:29;;;;;;;;;;;;;;;32.69;26.35;100139.31;5032943;28;818;-58
2021/09/26 12:39:58;;;;;;;;;;;;;;;32.82;26.55;100147.13;5032725;28;1961;-58
2021/09/26 12:42:26;;;;;;;;;;;;;;;32.78;26.45;100135.25;5032920;28;803;-58
2021/09/26 12:44:54;;;;;;;;;;;;;;;32.94;26.32;100122.66;5032827;28;834;-58
2021/09/26 12:47:29;;;;;;;;;;;;;;;33.09;26.16;100124.97;5032949;28;830;-58
2021/09/26 12:49:55;;;;;;;;;;;;;;;33.09;26.54;100124.22;5032747;28;842;-60
2021/09/26 12:52:29;;;;;;;;;;;;;;;32.92;27.26;100130.25;5032618;28;957;-58
2021/09/26 12:54:59;;;;;;;;;;;;;;;33.00;27.36;100121.78;5032608;28;806;-58
2021/09/26 12:57:27;;;;;;;;;;;;;;;32.94;27.51;100116.94;5032476;28;2019;-58
2021/09/26 13:00:12;;;;;;;;;;;;;;;32.96;28.17;100119.25;5032586;28;1894;-58
2021/09/26 13:02:43;;;;;;;;;;;;;;;32.43;28.65;100124.97;5032391;28;917;-58
2021/09/26 13:05:12;;;;;;;;;;;;;;;31.74;30.12;100128.19;5032467;28;866;-58
2021/09/26 13:07:39;;;;;;;;;;;;;;;31.41;31.01;100122.94;5033147;28;736;-58
2021/09/26 13:10:14;;;;;;;;;;;;;;;31.11;31.45;100121.81;5032938;28;835;-58